createdAt,value
2022-07-27T00:04:31.491Z,100255.85
2022-07-27T00:09:37.276Z,100251.84
2022-07-27T00:14:43.153Z,100252.16
2022-07-27T00:19:48.933Z,100252.74
2022-07-27T00:24:54.664Z,100256.63
2022-07-27T00:30:00.512Z,100257.31
2022-07-27T00:35:08.199Z,100262.97
2022-07-27T00:40:14.488Z,100266.66
2022-07-27T00:45:20.304Z,100271.56
2022-07-27T00:50:26.914Z,100270.48
2022-07-27T00:55:34.225Z,100281.21
2022-07-27T01:00:40.814Z,100293.28
2022-07-27T01:05:47.853Z,100296.09
2022-07-27T01:10:55.184Z,100299.10
2022-07-27T01:16:03.718Z,100298.05
2022-07-27T01:21:10.662Z,100309.34
2022-07-27T01:26:16.686Z,100304.61
2022-07-27T01:31:22.543Z,100307.21
2022-07-27T01:36:28.759Z,100312.73
2022-07-27T01:41:34.983Z,100312.39
2022-07-27T01:46:40.853Z,100310.27
2022-07-27T01:51:46.898Z,100307.95
2022-07-27T01:56:53.019Z,100308.03
2022-07-27T02:01:59.325Z,100307.03
2022-07-27T02:07:05.367Z,100309.25
2022-07-27T02:12:30.283Z,100318.45
2022-07-27T02:17:36.592Z,100326.38
2022-07-27T02:22:43.120Z,100327.56
2022-07-27T02:27:49.832Z,100332.72
2022-07-27T02:32:55.823Z,100339.98
2022-07-27T02:38:01.904Z,100343.00
2022-07-27T02:43:07.726Z,100341.00
2022-07-27T02:48:13.766Z,100337.32
2022-07-27T02:53:19.671Z,100341.55
2022-07-27T02:58:25.479Z,100348.55
2022-07-27T03:03:35.902Z,100354.98
2022-07-27T03:08:42.817Z,100359.16
2022-07-27T03:13:48.567Z,100370.33
2022-07-27T03:18:54.429Z,100380.88
2022-07-27T03:24:00.383Z,100381.42
2022-07-27T03:29:06.355Z,100384.30
2022-07-27T03:34:12.354Z,100386.94
2022-07-27T03:39:18.233Z,100398.82
2022-07-27T03:44:24.146Z,100418.62
2022-07-27T03:49:30.373Z,100409.83
2022-07-27T03:54:36.276Z,100420.92
2022-07-27T03:59:42.714Z,100424.47
2022-07-27T04:04:48.537Z,100428.35
2022-07-27T04:09:54.439Z,100428.20
2022-07-27T04:15:00.359Z,100430.88
2022-07-27T04:20:08.336Z,100441.25
2022-07-27T04:25:14.337Z,100451.73
2022-07-27T04:30:20.428Z,100447.03
2022-07-27T04:35:26.994Z,100449.27
2022-07-27T04:40:34.995Z,100454.70
2022-07-27T04:45:41.062Z,100466.33
2022-07-27T04:50:47.922Z,100467.39
2022-07-27T04:55:53.779Z,100465.55
2022-07-27T05:01:00.443Z,100470.36
2022-07-27T05:06:06.723Z,100467.87
2022-07-27T05:11:12.607Z,100461.95
2022-07-27T05:16:18.721Z,100464.45
2022-07-27T05:21:25.182Z,100464.00
2022-07-27T05:26:31.419Z,100459.44
2022-07-27T05:31:37.313Z,100466.70
2022-07-27T05:36:43.391Z,100469.54
2022-07-27T05:41:49.762Z,100475.34
2022-07-27T05:46:56.772Z,100478.64
2022-07-27T05:52:03.173Z,100478.85
2022-07-27T05:57:09.044Z,100489.14
2022-07-27T06:02:14.853Z,100494.54
2022-07-27T06:07:39.872Z,100495.25
2022-07-27T06:12:47.181Z,100496.51
2022-07-27T06:17:53.995Z,100499.13
2022-07-27T06:23:07.584Z,100506.48
2022-07-27T06:28:14.229Z,100511.33
2022-07-27T06:35:23.390Z,100507.14
2022-07-27T06:40:30.125Z,100509.23
2022-07-27T06:45:36.428Z,100513.45
2022-07-27T06:50:40.763Z,100505.77
2022-07-27T06:55:46.733Z,100514.88
2022-07-27T07:00:52.881Z,100509.30
2022-07-27T07:05:58.979Z,100503.36
2022-07-27T07:11:05.218Z,100505.48
2022-07-27T07:16:11.345Z,100504.11
2022-07-27T07:21:18.753Z,100503.08
2022-07-27T07:26:24.664Z,100505.06
2022-07-27T07:31:30.707Z,100500.70
2022-07-27T07:36:37.010Z,100504.73
2022-07-27T07:41:43.193Z,100505.45
2022-07-27T07:46:49.968Z,100507.08
2022-07-27T07:51:59.123Z,100500.16
2022-07-27T07:57:10.126Z,100507.20
2022-07-27T08:08:03.888Z,100511.91
2022-07-27T08:13:33.379Z,100512.23
2022-07-27T08:19:18.383Z,100511.53
2022-07-27T08:24:29.237Z,100509.00
2022-07-27T08:30:20.204Z,100514.00
2022-07-27T08:35:45.182Z,100510.21
2022-07-27T08:40:51.676Z,100514.36
2022-07-27T08:46:00.460Z,100518.69
2022-07-27T08:51:09.715Z,100525.57
2022-07-27T08:56:16.294Z,100532.10
2022-07-27T09:01:22.293Z,100530.80
2022-07-27T09:06:53.238Z,100537.58
2022-07-27T09:12:09.705Z,100535.02
2022-07-27T09:22:54.761Z,100545.31
2022-07-27T09:28:01.117Z,100545.55
2022-07-27T09:33:08.109Z,100554.90
2022-07-27T09:38:19.436Z,100550.13
2022-07-27T09:48:51.606Z,100554.14
2022-07-27T09:53:59.419Z,100551.32
2022-07-27T09:59:05.626Z,100551.47
2022-07-27T10:04:11.758Z,100548.16
2022-07-27T10:09:20.048Z,100546.84
2022-07-27T10:14:26.133Z,100543.92
2022-07-27T10:19:42.040Z,100553.20
2022-07-27T10:25:00.648Z,100558.75
2022-07-27T10:30:24.064Z,100560.13
2022-07-27T10:35:44.603Z,100548.92
2022-07-27T10:41:23.964Z,100551.89
2022-07-27T10:46:32.172Z,100546.96
2022-07-27T10:51:38.446Z,100548.36
2022-07-27T10:56:51.039Z,100554.10
2022-07-27T11:02:00.139Z,100555.27
2022-07-27T11:07:24.865Z,100544.14
2022-07-27T11:12:32.075Z,100544.22
2022-07-27T11:17:56.781Z,100545.90
2022-07-27T11:28:47.688Z,100538.59
2022-07-27T11:33:59.293Z,100531.48
2022-07-27T11:39:06.966Z,100534.08
2022-07-27T11:44:15.142Z,100529.14
2022-07-27T11:49:26.803Z,100533.23
2022-07-27T11:54:34.875Z,100538.09
2022-07-27T11:59:43.287Z,100531.51
2022-07-27T12:04:50.498Z,100535.88
2022-07-27T12:09:58.319Z,100537.66
2022-07-27T12:20:48.634Z,100541.84
2022-07-27T12:25:54.630Z,100537.23
2022-07-27T12:31:00.737Z,100534.77
2022-07-27T12:36:09.110Z,100531.50
2022-07-27T12:41:26.532Z,100533.49
2022-07-27T12:46:32.460Z,100531.33
2022-07-27T12:51:38.206Z,100530.81
2022-07-27T12:56:44.419Z,100530.19
2022-07-27T13:01:53.009Z,100537.14
2022-07-27T13:06:59.484Z,100542.14
2022-07-27T13:12:07.057Z,100538.90
2022-07-27T13:17:20.889Z,100539.05
2022-07-27T13:22:26.878Z,100534.60
2022-07-27T13:27:32.813Z,100531.37
2022-07-27T13:32:39.324Z,100529.63
2022-07-27T13:37:45.788Z,100523.33
2022-07-27T13:42:51.776Z,100524.80
2022-07-27T13:47:57.639Z,100521.35
2022-07-27T13:53:03.498Z,100516.21
2022-07-27T13:58:09.419Z,100513.09
2022-07-27T14:03:15.558Z,100512.17
2022-07-27T14:08:21.885Z,100504.46
2022-07-27T14:13:29.428Z,100503.26
2022-07-27T14:18:36.873Z,100497.80
2022-07-27T14:23:42.962Z,100509.81
2022-07-27T14:28:49.283Z,100520.26
2022-07-27T14:33:55.423Z,100518.18
2022-07-27T14:39:01.260Z,100516.24
2022-07-27T14:44:07.858Z,100513.70
2022-07-27T14:49:17.313Z,100509.30
2022-07-27T14:54:23.350Z,100503.98
2022-07-27T14:59:29.333Z,100505.50
2022-07-27T15:04:35.127Z,100501.36
2022-07-27T15:09:41.041Z,100492.13
2022-07-27T15:14:47.148Z,100488.66
2022-07-27T15:19:53.139Z,100494.10
2022-07-27T15:24:59.265Z,100489.55
2022-07-27T15:30:06.289Z,100492.46
2022-07-27T15:35:12.359Z,100491.75
2022-07-27T15:40:38.673Z,100495.09
2022-07-27T15:45:48.290Z,100494.09
2022-07-27T15:50:54.847Z,100492.20
2022-07-27T15:56:00.957Z,100488.14
2022-07-27T16:01:08.366Z,100488.45
2022-07-27T16:06:20.214Z,100488.73
2022-07-27T16:11:26.409Z,100499.21
2022-07-27T16:16:32.383Z,100495.94
2022-07-27T16:21:53.890Z,100492.92
2022-07-27T16:27:03.027Z,100488.11
2022-07-27T16:32:09.537Z,100481.45
2022-07-27T16:37:15.484Z,100475.46
2022-07-27T16:42:21.243Z,100474.89
2022-07-27T16:47:27.684Z,100477.17
2022-07-27T16:52:33.803Z,100476.27
2022-07-27T16:57:39.814Z,100479.53
2022-07-27T17:02:46.007Z,100481.05
2022-07-27T17:07:52.536Z,100481.11
2022-07-27T17:12:58.812Z,100479.14
2022-07-27T17:18:05.332Z,100472.11
2022-07-27T17:23:12.151Z,100464.71
2022-07-27T17:28:17.988Z,100460.08
2022-07-27T17:33:23.803Z,100457.12
2022-07-27T17:38:31.514Z,100468.95
2022-07-27T17:43:38.900Z,100474.27
2022-07-27T17:48:45.058Z,100477.62
2022-07-27T17:53:51.033Z,100481.48
2022-07-27T17:59:09.264Z,100478.70
2022-07-27T18:04:23.003Z,100481.75
2022-07-27T18:09:28.992Z,100487.75
2022-07-27T18:14:34.739Z,100493.90
2022-07-27T18:19:44.374Z,100500.83
2022-07-27T18:24:51.758Z,100495.69
2022-07-27T18:29:57.675Z,100489.03
2022-07-27T18:35:03.759Z,100484.14
2022-07-27T18:40:12.143Z,100488.70
2022-07-27T18:45:18.259Z,100495.23
2022-07-27T18:50:24.746Z,100504.03
2022-07-27T18:55:32.200Z,100507.06
2022-07-27T19:00:38.027Z,100517.79
2022-07-27T19:05:44.885Z,100527.02
2022-07-27T19:10:52.168Z,100536.39
2022-07-27T19:16:00.649Z,100540.10
2022-07-27T19:21:06.495Z,100541.66
2022-07-27T19:26:12.299Z,100546.34
2022-07-27T19:31:22.874Z,100553.98
2022-07-27T19:36:29.892Z,100558.71
2022-07-27T19:41:35.825Z,100559.33
2022-07-27T19:46:41.724Z,100562.20
2022-07-27T19:51:48.023Z,100571.46
2022-07-27T19:56:53.923Z,100584.76
2022-07-27T20:01:59.914Z,100595.91
2022-07-27T20:07:09.898Z,100604.73
2022-07-27T20:12:15.646Z,100613.52
2022-07-27T20:17:21.498Z,100619.15
2022-07-27T20:22:27.592Z,100623.64
2022-07-27T20:27:33.602Z,100627.57
2022-07-27T20:32:39.443Z,100630.95
2022-07-27T20:37:46.570Z,100634.47
2022-07-27T20:42:52.717Z,100633.51
2022-07-27T20:47:58.513Z,100643.13
2022-07-27T20:53:04.455Z,100648.73
2022-07-27T20:58:11.405Z,100654.02
2022-07-27T21:03:17.367Z,100661.79
2022-07-27T21:08:23.343Z,100669.90
2022-07-27T21:13:29.242Z,100673.19
2022-07-27T21:18:35.749Z,100683.90
2022-07-27T21:24:00.558Z,100680.42
2022-07-27T21:29:09.294Z,100683.88
2022-07-27T21:34:17.562Z,100688.55
2022-07-27T21:39:24.933Z,100698.56
2022-07-27T21:44:30.581Z,100704.42
2022-07-27T21:49:36.224Z,100714.38
2022-07-27T21:54:41.925Z,100716.95
2022-07-27T21:59:47.546Z,100729.33
2022-07-27T22:04:53.005Z,100740.48
2022-07-27T22:09:58.475Z,100744.14
2022-07-27T22:15:04.517Z,100753.25
2022-07-27T22:20:11.116Z,100751.58
2022-07-27T22:25:19.232Z,100751.61
2022-07-27T22:30:24.870Z,100758.49
2022-07-27T22:35:30.482Z,100759.23
2022-07-27T22:40:35.870Z,100761.64
2022-07-27T22:45:41.255Z,100760.10
2022-07-27T22:50:47.366Z,100761.58
2022-07-27T22:55:53.892Z,100764.77
2022-07-27T23:01:00.018Z,100766.89
2022-07-27T23:06:06.266Z,100780.37
2022-07-27T23:11:12.379Z,100784.41
2022-07-27T23:16:18.225Z,100789.42
2022-07-27T23:21:23.721Z,100786.30
2022-07-27T23:26:29.382Z,100782.56
2022-07-27T23:31:35.528Z,100779.33
2022-07-27T23:36:43.955Z,100791.53
2022-07-27T23:41:50.152Z,100798.88
2022-07-27T23:46:55.882Z,100799.52
2022-07-27T23:52:02.750Z,100804.77
2022-07-27T23:57:08.870Z,100809.80
